createdAt,value
2023-02-09T00:02:50.701Z,117.30
2023-02-09T00:07:54.451Z,125.80
2023-02-09T00:13:16.513Z,111.40
2023-02-09T00:18:20.775Z,139.20
2023-02-09T00:23:25.092Z,140.60
2023-02-09T00:28:29.851Z,126.00
2023-02-09T00:33:33.492Z,147.50
2023-02-09T00:38:37.860Z,136.90
2023-02-09T00:43:41.597Z,120.80
2023-02-09T00:48:45.240Z,128.00
2023-02-09T00:53:48.895Z,138.50
2023-02-09T00:58:53.049Z,137.60
2023-02-09T01:03:57.219Z,140.40
2023-02-09T01:09:01.738Z,119.80
2023-02-09T01:14:05.431Z,117.80
2023-02-09T01:19:12.426Z,128.50
2023-02-09T01:24:16.549Z,135.50
2023-02-09T01:29:21.515Z,133.00
2023-02-09T01:34:25.108Z,122.00
2023-02-09T01:39:28.882Z,126.70
2023-02-09T01:45:02.536Z,126.90
2023-02-09T01:50:06.678Z,122.70
2023-02-09T01:55:16.041Z,127.00
2023-02-09T02:00:20.850Z,123.90
2023-02-09T02:05:25.795Z,122.20
2023-02-09T02:10:31.303Z,117.10
2023-02-09T02:15:47.957Z,132.90
2023-02-09T02:21:14.568Z,132.90
2023-02-09T02:26:55.843Z,116.40
2023-02-09T02:32:05.603Z,124.30
2023-02-09T02:37:53.909Z,126.50
2023-02-09T02:43:27.576Z,117.70
2023-02-09T02:49:15.220Z,116.70
2023-02-09T02:54:27.934Z,108.50
2023-02-09T02:59:37.220Z,110.10
2023-02-09T03:04:41.597Z,104.90
2023-02-09T03:09:57.790Z,84.70
2023-02-09T03:15:15.397Z,76.50
2023-02-09T03:20:59.179Z,87.20
2023-02-09T03:26:10.877Z,87.80
2023-02-09T03:31:14.735Z,93.70
2023-02-09T03:41:23.218Z,92.40
2023-02-09T03:46:27.003Z,91.20
2023-02-09T03:56:38.549Z,102.60
2023-02-09T04:01:43.459Z,124.30
2023-02-09T04:06:48.538Z,115.70
2023-02-09T04:11:52.510Z,157.60
2023-02-09T04:16:56.533Z,235.60
2023-02-09T04:22:01.293Z,248.40
2023-02-09T04:27:06.716Z,245.60
2023-02-09T04:32:10.902Z,183.00
2023-02-09T04:37:15.386Z,205.00
2023-02-09T04:42:19.028Z,144.10
2023-02-09T04:47:22.626Z,144.00
2023-02-09T04:52:26.277Z,127.90
2023-02-09T04:57:48.721Z,134.70
2023-02-09T05:02:52.483Z,114.90
2023-02-09T05:07:56.239Z,120.60
2023-02-09T05:12:59.940Z,110.40
2023-02-09T05:18:03.617Z,111.20
2023-02-09T05:23:07.375Z,105.20
2023-02-09T05:28:11.058Z,105.60
2023-02-09T05:33:14.648Z,107.40
2023-02-09T05:38:18.724Z,125.70
2023-02-09T05:43:22.470Z,116.10
2023-02-09T05:48:26.444Z,118.00
2023-02-09T05:53:32.702Z,100.60
2023-02-09T05:58:36.556Z,111.00
2023-02-09T06:03:40.265Z,107.50
2023-02-09T06:08:44.158Z,120.00
2023-02-09T06:13:48.597Z,120.10
2023-02-09T06:18:52.867Z,111.50
2023-02-09T06:23:56.635Z,104.30
2023-02-09T06:29:00.995Z,101.20
2023-02-09T06:34:06.824Z,119.40
2023-02-09T06:39:10.907Z,104.90
2023-02-09T06:44:14.809Z,107.00
2023-02-09T06:49:19.349Z,108.70
2023-02-09T06:54:24.155Z,102.50
2023-02-09T06:59:37.030Z,101.50
2023-02-09T07:04:45.600Z,99.50
2023-02-09T07:09:51.234Z,96.00
2023-02-09T07:15:00.146Z,88.00
2023-02-09T07:20:07.029Z,78.00
2023-02-09T07:25:12.483Z,68.90
2023-02-09T07:30:16.864Z,70.30
2023-02-09T07:35:35.689Z,53.20
2023-02-09T07:41:08.989Z,51.70
2023-02-09T07:46:23.756Z,47.50
2023-02-09T07:51:34.400Z,37.40
2023-02-09T07:56:42.248Z,36.50
2023-02-09T08:02:21.967Z,32.30
2023-02-09T08:22:14.202Z,17.90
2023-02-09T08:27:48.676Z,22.30
2023-02-09T08:33:54.088Z,18.00
2023-02-09T08:39:11.206Z,22.50
2023-02-09T08:44:21.305Z,20.20
2023-02-09T08:49:25.614Z,18.90
2023-02-09T08:54:32.501Z,18.60
2023-02-09T08:59:46.330Z,20.70
2023-02-09T09:19:52.235Z,16.30
2023-02-09T09:48:08.561Z,14.40
2023-02-09T10:11:07.089Z,17.60
2023-02-09T10:51:46.994Z,11.80
2023-02-09T10:57:40.752Z,9.90
2023-02-09T11:03:48.864Z,12.90
2023-02-09T11:10:05.457Z,9.40
2023-02-09T11:16:24.590Z,16.30
2023-02-09T11:22:55.580Z,10.70
2023-02-09T11:29:29.441Z,10.30
2023-02-09T11:35:57.289Z,14.10
2023-02-09T11:43:07.167Z,10.10
2023-02-09T11:49:32.966Z,11.60
2023-02-09T11:56:07.961Z,11.90
2023-02-09T12:02:32.502Z,11.50
2023-02-09T12:08:53.075Z,10.10
2023-02-09T12:15:09.740Z,10.40
2023-02-09T12:21:46.245Z,10.10
2023-02-09T12:27:54.413Z,13.90
2023-02-09T12:34:04.705Z,9.80
2023-02-09T12:40:21.609Z,11.90
2023-02-09T12:46:32.894Z,10.80
2023-02-09T12:53:02.520Z,9.30
2023-02-09T12:59:51.084Z,12.00
2023-02-09T13:06:22.644Z,13.00
2023-02-09T13:20:20.775Z,11.60
2023-02-09T13:26:46.639Z,13.10
2023-02-09T13:33:20.381Z,11.60
2023-02-09T13:39:19.449Z,15.40
2023-02-09T13:45:35.376Z,13.50
2023-02-09T13:51:35.608Z,14.70
2023-02-09T13:57:29.950Z,13.70
2023-02-09T14:03:28.680Z,12.20
2023-02-09T14:09:38.974Z,12.00
2023-02-09T14:15:50.171Z,16.10
2023-02-09T14:21:16.667Z,13.80
2023-02-09T14:27:47.206Z,13.60
2023-02-09T14:33:41.752Z,14.70
2023-02-09T14:39:54.431Z,17.60
2023-02-09T14:52:36.826Z,18.30
2023-02-09T14:59:14.111Z,19.40
2023-02-09T15:05:26.380Z,18.50
2023-02-09T15:11:45.348Z,21.10
2023-02-09T15:17:52.037Z,20.00
2023-02-09T15:23:28.974Z,20.50
2023-02-09T15:28:53.097Z,17.50
2023-02-09T15:34:54.312Z,20.70
2023-02-09T15:41:51.889Z,19.00
2023-02-09T15:48:33.429Z,19.00
2023-02-09T15:54:06.127Z,20.60
2023-02-09T15:59:35.610Z,18.90
2023-02-09T16:04:46.671Z,20.20
2023-02-09T16:10:52.818Z,20.20
2023-02-09T16:17:02.320Z,21.90
2023-02-09T16:23:27.830Z,20.10
2023-02-09T16:37:21.135Z,29.60
2023-02-09T16:43:44.667Z,36.30
2023-02-09T16:49:19.423Z,32.70
2023-02-09T16:55:29.658Z,32.40
2023-02-09T17:02:00.393Z,31.60
2023-02-09T17:15:28.424Z,113.50
2023-02-09T17:22:00.105Z,79.90
2023-02-09T17:28:29.042Z,64.10
2023-02-09T17:34:55.922Z,49.30
2023-02-09T17:41:26.010Z,39.00
2023-02-09T17:47:55.387Z,36.70
2023-02-09T17:54:21.116Z,43.60
2023-02-09T18:00:30.888Z,35.80
2023-02-09T18:07:10.417Z,60.30
2023-02-09T18:19:35.555Z,33.30
2023-02-09T18:25:40.922Z,29.80
2023-02-09T18:31:50.692Z,28.10
2023-02-09T18:38:07.511Z,24.80
2023-02-09T18:44:17.475Z,29.90
2023-02-09T18:49:57.742Z,34.80
2023-02-09T18:55:25.555Z,38.20
2023-02-09T19:01:08.611Z,34.50
2023-02-09T19:07:34.870Z,34.30
2023-02-09T19:13:22.064Z,35.50
2023-02-09T19:18:42.149Z,38.50
2023-02-09T19:23:52.266Z,59.60
2023-02-09T19:29:29.043Z,37.80
2023-02-09T19:34:47.572Z,40.60
2023-02-09T19:40:05.785Z,26.50
2023-02-09T19:45:17.781Z,32.60
2023-02-09T19:50:24.580Z,36.50
2023-02-09T19:55:36.313Z,40.20
2023-02-09T20:00:44.571Z,29.40
2023-02-09T20:05:53.520Z,31.40
2023-02-09T20:11:20.756Z,48.20
2023-02-09T20:16:31.945Z,37.70
2023-02-09T20:21:48.127Z,37.30
2023-02-09T20:27:05.996Z,37.30
2023-02-09T20:32:14.492Z,34.10
2023-02-09T20:37:29.916Z,32.20
2023-02-09T20:42:56.116Z,25.10
2023-02-09T20:48:06.134Z,30.20
2023-02-09T20:53:35.419Z,29.20
2023-02-09T20:58:44.384Z,29.10
2023-02-09T21:04:19.165Z,25.60
2023-02-09T21:09:38.086Z,24.80
2023-02-09T21:14:49.919Z,27.60
2023-02-09T21:19:55.786Z,22.50
2023-02-09T21:25:11.338Z,26.90
2023-02-09T21:30:30.772Z,26.50
2023-02-09T21:35:39.155Z,27.10
2023-02-09T21:40:53.571Z,23.70
2023-02-09T21:46:00.325Z,25.90
2023-02-09T21:51:14.163Z,27.20
2023-02-09T21:56:26.535Z,27.80
2023-02-09T22:01:35.165Z,26.40
2023-02-09T22:06:39.731Z,29.00
2023-02-09T22:11:44.489Z,26.60
2023-02-09T22:16:51.340Z,25.70
2023-02-09T22:21:58.830Z,25.00
2023-02-09T22:27:04.735Z,23.90
2023-02-09T22:32:14.214Z,28.80
2023-02-09T22:37:18.906Z,24.40
2023-02-09T22:42:23.048Z,25.00
2023-02-09T22:47:27.786Z,28.70
2023-02-09T22:52:32.642Z,29.20
2023-02-09T22:57:39.947Z,27.30
2023-02-09T23:02:56.360Z,23.80
2023-02-09T23:08:01.025Z,28.50
2023-02-09T23:13:08.986Z,29.60
2023-02-09T23:18:22.145Z,24.90
2023-02-09T23:23:27.425Z,27.30
2023-02-09T23:28:57.227Z,30.30
2023-02-09T23:34:07.798Z,24.50
2023-02-09T23:39:15.837Z,23.20
2023-02-09T23:44:20.262Z,22.90
2023-02-09T23:49:25.630Z,21.20
2023-02-09T23:54:31.693Z,29.20
2023-02-09T23:59:49.010Z,21.40
